Aviation Digital Data Service (ADDS)

Output produced by TAFs form (2236 UTC 03 March 2015)
found at http://aviationweather.gov/adds/tafs/
 
KTUS 031742Z 0318/0418 30008KT P6SM SCT030 BKN060 
     FM040400 24005KT P6SM SCT040 BKN070 
     FM040900 17004KT P6SM SCT030 BKN060 
     FM041700 31005KT P6SM SCT040